sensor_id;sensor_type;location;lat;lon;timestamp;pressure;altitude;pressure_sealevel;temperature;humidity
46718;BME280;32448;44.960;-0.698;2023-05-01T00:00:10;101826.00;;;14.39;100.00
46718;BME280;32448;44.960;-0.698;2023-05-01T00:02:40;101823.16;;;14.27;100.00
46718;BME280;32448;44.960;-0.698;2023-05-01T00:05:08;101818.81;;;14.29;100.00
46718;BME280;32448;44.960;-0.698;2023-05-01T00:07:35;101817.88;;;14.27;100.00
46718;BME280;32448;44.960;-0.698;2023-05-01T00:10:03;101813.41;;;14.21;100.00
46718;BME280;32448;44.960;-0.698;2023-05-01T00:12:30;101818.78;;;14.27;100.00
46718;BME280;32448;44.960;-0.698;2023-05-01T00:14:58;101817.81;;;14.22;100.00
46718;BME280;32448;44.960;-0.698;2023-05-01T00:17:25;101808.22;;;14.24;100.00
46718;BME280;32448;44.960;-0.698;2023-05-01T00:19:53;101804.69;;;14.24;100.00
46718;BME280;32448;44.960;-0.698;2023-05-01T00:22:20;101820.53;;;14.28;100.00
46718;BME280;32448;44.960;-0.698;2023-05-01T00:24:48;101816.13;;;14.24;100.00
46718;BME280;32448;44.960;-0.698;2023-05-01T00:27:16;101814.19;;;14.17;100.00
46718;BME280;32448;44.960;-0.698;2023-05-01T00:29:43;101819.50;;;14.18;100.00
46718;BME280;32448;44.960;-0.698;2023-05-01T00:32:10;101817.66;;;14.14;100.00
46718;BME280;32448;44.960;-0.698;2023-05-01T00:34:38;101811.47;;;14.11;100.00
46718;BME280;32448;44.960;-0.698;2023-05-01T00:37:05;101813.97;;;14.05;100.00
46718;BME280;32448;44.960;-0.698;2023-05-01T00:39:34;101804.38;;;14.07;100.00
46718;BME280;32448;44.960;-0.698;2023-05-01T00:42:01;101815.63;;;14.00;100.00
46718;BME280;32448;44.960;-0.698;2023-05-01T00:44:29;101802.53;;;14.01;100.00
46718;BME280;32448;44.960;-0.698;2023-05-01T00:46:57;101808.66;;;14.03;100.00
46718;BME280;32448;44.960;-0.698;2023-05-01T00:49:26;101809.59;;;14.05;100.00
46718;BME280;32448;44.960;-0.698;2023-05-01T00:51:54;101809.59;;;14.05;100.00
46718;BME280;32448;44.960;-0.698;2023-05-01T00:54:21;101814.06;;;14.09;100.00
46718;BME280;32448;44.960;-0.698;2023-05-01T00:56:51;101810.44;;;14.04;100.00
46718;BME280;32448;44.960;-0.698;2023-05-01T00:59:18;101803.22;;;13.91;100.00
46718;BME280;32448;44.960;-0.698;2023-05-01T01:01:45;101804.13;;;13.95;100.00
46718;BME280;32448;44.960;-0.698;2023-05-01T01:04:13;101809.25;;;13.87;100.00
46718;BME280;32448;44.960;-0.698;2023-05-01T01:14:18;101803.59;;;13.67;100.00
46718;BME280;32448;44.960;-0.698;2023-05-01T01:16:51;101800.19;;;13.73;100.00
46718;BME280;32448;44.960;-0.698;2023-05-01T01:21:54;101793.00;;;13.64;100.00
46718;BME280;32448;44.960;-0.698;2023-05-01T01:24:34;101795.75;;;13.70;100.00
46718;BME280;32448;44.960;-0.698;2023-05-01T01:35:18;101800.97;;;13.67;100.00
46718;BME280;32448;44.960;-0.698;2023-05-01T01:37:50;101801.81;;;13.66;100.00
46718;BME280;32448;44.960;-0.698;2023-05-01T01:40:23;101796.44;;;13.62;100.00
46718;BME280;32448;44.960;-0.698;2023-05-01T01:42:54;101793.94;;;13.66;100.00
46718;BME280;32448;44.960;-0.698;2023-05-01T01:45:29;101796.50;;;13.63;100.00
46718;BME280;32448;44.960;-0.698;2023-05-01T01:48:00;101791.09;;;13.56;100.00
46718;BME280;32448;44.960;-0.698;2023-05-01T01:50:29;101793.81;;;13.62;100.00
46718;BME280;32448;44.960;-0.698;2023-05-01T01:52:57;101800.78;;;13.58;100.00
46718;BME280;32448;44.960;-0.698;2023-05-01T01:55:26;101791.16;;;13.60;100.00
46718;BME280;32448;44.960;-0.698;2023-05-01T01:57:55;101791.16;;;13.60;100.00
46718;BME280;32448;44.960;-0.698;2023-05-01T02:00:24;101797.06;;;13.50;100.00
46718;BME280;32448;44.960;-0.698;2023-05-01T02:02:54;101799.88;;;13.58;100.00
46718;BME280;32448;44.960;-0.698;2023-05-01T02:05:22;101797.31;;;13.61;100.00
46718;BME280;32448;44.960;-0.698;2023-05-01T02:07:51;101792.94;;;13.61;100.00
46718;BME280;32448;44.960;-0.698;2023-05-01T02:10:18;101798.22;;;13.63;100.00
46718;BME280;32448;44.960;-0.698;2023-05-01T02:12:50;101792.03;;;13.61;100.00
46718;BME280;32448;44.960;-0.698;2023-05-01T02:15:17;101783.38;;;13.65;100.00
46718;BME280;32448;44.960;-0.698;2023-05-01T02:17:45;101789.59;;;13.68;100.00
46718;BME280;32448;44.960;-0.698;2023-05-01T02:20:14;101788.63;;;13.65;100.00
46718;BME280;32448;44.960;-0.698;2023-05-01T02:22:42;101790.50;;;13.69;100.00
46718;BME280;32448;44.960;-0.698;2023-05-01T02:25:12;101793.94;;;13.66;100.00
46718;BME280;32448;44.960;-0.698;2023-05-01T02:27:46;101795.72;;;13.67;100.00
46718;BME280;32448;44.960;-0.698;2023-05-01T02:30:14;101799.91;;;13.59;100.00
46718;BME280;32448;44.960;-0.698;2023-05-01T02:32:41;101792.03;;;13.61;100.00
46718;BME280;32448;44.960;-0.698;2023-05-01T02:35:09;101798.31;;;13.66;100.00
46718;BME280;32448;44.960;-0.698;2023-05-01T02:37:36;101796.50;;;13.63;100.00
46718;BME280;32448;44.960;-0.698;2023-05-01T02:40:04;101800.13;;;13.68;100.00
46718;BME280;32448;44.960;-0.698;2023-05-01T02:42:34;101805.34;;;13.67;100.00
46718;BME280;32448;44.960;-0.698;2023-05-01T02:45:03;101795.63;;;13.64;100.00
46718;BME280;32448;44.960;-0.698;2023-05-01T02:47:36;101796.41;;;13.60;100.00
46718;BME280;32448;44.960;-0.698;2023-05-01T02:50:04;101795.56;;;13.61;100.00
46718;BME280;32448;44.960;-0.698;2023-05-01T02:52:32;101790.31;;;13.61;100.00
46718;BME280;32448;44.960;-0.698;2023-05-01T02:55:20;101784.13;;;13.59;100.00
46718;BME280;32448;44.960;-0.698;2023-05-01T02:57:49;101785.00;;;13.60;100.00
46718;BME280;32448;44.960;-0.698;2023-05-01T03:00:16;101780.63;;;13.59;100.00
46718;BME280;32448;44.960;-0.698;2023-05-01T03:02:44;101792.91;;;13.58;100.00
46718;BME280;32448;44.960;-0.698;2023-05-01T03:05:11;101790.28;;;13.58;100.00
46718;BME280;32448;44.960;-0.698;2023-05-01T03:07:40;101786.75;;;13.58;100.00
46718;BME280;32448;44.960;-0.698;2023-05-01T03:10:08;101788.50;;;13.57;100.00
46718;BME280;32448;44.960;-0.698;2023-05-01T03:12:35;101784.97;;;13.57;100.00
46718;BME280;32448;44.960;-0.698;2023-05-01T03:15:02;101790.22;;;13.57;100.00
46718;BME280;32448;44.960;-0.698;2023-05-01T03:17:30;101786.75;;;13.58;100.00
46718;BME280;32448;44.960;-0.698;2023-05-01T03:19:57;101795.41;;;13.54;100.00
46718;BME280;32448;44.960;-0.698;2023-05-01T03:22:27;101788.38;;;13.53;100.00
46718;BME280;32448;44.960;-0.698;2023-05-01T03:24:55;101787.53;;;13.54;100.00
46718;BME280;32448;44.960;-0.698;2023-05-01T03:27:22;101788.47;;;13.56;100.00
46718;BME280;32448;44.960;-0.698;2023-05-01T03:29:50;101784.94;;;13.55;100.00
46718;BME280;32448;44.960;-0.698;2023-05-01T03:32:18;101784.94;;;13.55;100.00
46718;BME280;32448;44.960;-0.698;2023-05-01T03:34:47;101787.59;;;13.57;100.00
46718;BME280;32448;44.960;-0.698;2023-05-01T03:37:15;101784.91;;;13.54;100.00
46718;BME280;32448;44.960;-0.698;2023-05-01T03:39:42;101790.00;;;13.46;100.00
46718;BME280;32448;44.960;-0.698;2023-05-01T03:42:34;101776.06;;;13.50;100.00
46718;BME280;32448;44.960;-0.698;2023-05-01T03:45:08;101774.41;;;13.54;100.00
46718;BME280;32448;44.960;-0.698;2023-05-01T03:47:36;101777.84;;;13.51;100.00
46718;BME280;32448;44.960;-0.698;2023-05-01T03:50:05;101761.97;;;13.45;100.00
46718;BME280;32448;44.960;-0.698;2023-05-01T03:52:32;101770.84;;;13.52;100.00
46718;BME280;32448;44.960;-0.698;2023-05-01T03:54:59;101783.19;;;13.56;100.00
46718;BME280;32448;44.960;-0.698;2023-05-01T03:57:38;101782.34;;;13.57;100.00
46718;BME280;32448;44.960;-0.698;2023-05-01T04:00:07;101776.19;;;13.55;100.00
46718;BME280;32448;44.960;-0.698;2023-05-01T04:02:44;101779.69;;;13.55;100.00
46718;BME280;32448;44.960;-0.698;2023-05-01T04:05:16;101782.38;;;13.58;100.00
46718;BME280;32448;44.960;-0.698;2023-05-01T04:07:49;101786.72;;;13.56;100.00
46718;BME280;32448;44.960;-0.698;2023-05-01T04:10:16;101783.25;;;13.59;100.00
46718;BME280;32448;44.960;-0.698;2023-05-01T04:12:52;101785.88;;;13.57;100.00
46718;BME280;32448;44.960;-0.698;2023-05-01T04:15:19;101785.78;;;13.54;100.00
46718;BME280;32448;44.960;-0.698;2023-05-01T04:17:48;101787.53;;;13.54;100.00
46718;BME280;32448;44.960;-0.698;2023-05-01T04:20:16;101786.59;;;13.52;100.00
46718;BME280;32448;44.960;-0.698;2023-05-01T04:22:45;101782.19;;;13.51;100.00
46718;BME280;32448;44.960;-0.698;2023-05-01T04:25:13;101783.97;;;13.52;100.00
46718;BME280;32448;44.960;-0.698;2023-05-01T04:28:03;101783.13;;;13.53;100.00
46718;BME280;32448;44.960;-0.698;2023-05-01T04:30:33;101777.94;;;13.56;100.00
46718;BME280;32448;44.960;-0.698;2023-05-01T04:33:08;101783.19;;;13.56;100.00
46718;BME280;32448;44.960;-0.698;2023-05-01T04:35:49;101784.84;;;13.51;100.00
46718;BME280;32448;44.960;-0.698;2023-05-01T04:38:24;101793.56;;;13.49;100.00
46718;BME280;32448;44.960;-0.698;2023-05-01T04:40:57;101788.38;;;13.53;100.00
46718;BME280;32448;44.960;-0.698;2023-05-01T04:43:29;101783.09;;;13.51;100.00
46718;BME280;32448;44.960;-0.698;2023-05-01T04:45:58;101786.53;;;13.48;100.00
46718;BME280;32448;44.960;-0.698;2023-05-01T04:48:28;101789.94;;;13.43;100.00
46718;BME280;32448;44.960;-0.698;2023-05-01T04:50:57;101794.41;;;13.47;100.00
46718;BME280;32448;44.960;-0.698;2023-05-01T04:53:32;101789.16;;;13.47;100.00
46718;BME280;32448;44.960;-0.698;2023-05-01T04:56:24;101796.19;;;13.49;100.00
46718;BME280;32448;44.960;-0.698;2023-05-01T04:58:59;101797.06;;;13.50;100.00
46718;BME280;32448;44.960;-0.698;2023-05-01T05:01:34;101798.84;;;13.51;100.00
46718;BME280;32448;44.960;-0.698;2023-05-01T05:04:03;101802.28;;;13.48;100.00
46718;BME280;32448;44.960;-0.698;2023-05-01T05:06:35;101797.91;;;13.47;100.00
46718;BME280;32448;44.960;-0.698;2023-05-01T05:09:11;101803.22;;;13.51;100.00
46718;BME280;32448;44.960;-0.698;2023-05-01T05:11:47;101801.56;;;13.54;100.00
46718;BME280;32448;44.960;-0.698;2023-05-01T05:14:21;101805.03;;;13.53;100.00
46718;BME280;32448;44.960;-0.698;2023-05-01T05:16:49;101812.06;;;13.54;100.00
46718;BME280;32448;44.960;-0.698;2023-05-01T05:19:17;101801.56;;;13.54;100.00
46718;BME280;32448;44.960;-0.698;2023-05-01T05:21:45;101812.88;;;13.52;100.00
46718;BME280;32448;44.960;-0.698;2023-05-01T05:24:12;101812.06;;;13.54;100.00
46718;BME280;32448;44.960;-0.698;2023-05-01T05:26:39;101813.88;;;13.57;100.00
46718;BME280;32448;44.960;-0.698;2023-05-01T05:29:07;101814.75;;;13.57;100.00
46718;BME280;32448;44.960;-0.698;2023-05-01T05:31:37;101822.66;;;13.59;100.00
46718;BME280;32448;44.960;-0.698;2023-05-01T05:34:05;101823.50;;;13.56;100.00
46718;BME280;32448;44.960;-0.698;2023-05-01T05:36:35;101818.31;;;13.61;100.00
46718;BME280;32448;44.960;-0.698;2023-05-01T05:39:03;101815.69;;;13.61;100.00
46718;BME280;32448;44.960;-0.698;2023-05-01T05:41:32;101820.09;;;13.62;100.00
46718;BME280;32448;44.960;-0.698;2023-05-01T05:47:27;101818.34;;;13.62;100.00
46718;BME280;32448;44.960;-0.698;2023-05-01T05:49:57;101815.72;;;13.62;100.00
46718;BME280;32448;44.960;-0.698;2023-05-01T05:52:25;101820.16;;;13.65;100.00
46718;BME280;32448;44.960;-0.698;2023-05-01T05:54:53;101823.56;;;13.61;100.00
46718;BME280;32448;44.960;-0.698;2023-05-01T05:57:21;101826.28;;;13.64;100.00
46718;BME280;32448;44.960;-0.698;2023-05-01T05:59:50;101833.34;;;13.66;100.00
46718;BME280;32448;44.960;-0.698;2023-05-01T06:02:21;101841.97;;;13.61;100.00
46718;BME280;32448;44.960;-0.698;2023-05-01T06:04:48;101832.38;;;13.63;100.00
46718;BME280;32448;44.960;-0.698;2023-05-01T06:07:20;101840.28;;;13.64;100.00
46718;BME280;32448;44.960;-0.698;2023-05-01T06:09:47;101835.84;;;13.62;100.00
46718;BME280;32448;44.960;-0.698;2023-05-01T06:12:14;101829.78;;;13.64;100.00
46718;BME280;32448;44.960;-0.698;2023-05-01T06:14:42;101833.34;;;13.66;100.00
46718;BME280;32448;44.960;-0.698;2023-05-01T06:17:09;101833.41;;;13.69;100.00
46718;BME280;32448;44.960;-0.698;2023-05-01T06:19:37;101843.06;;;13.72;100.00
46718;BME280;32448;44.960;-0.698;2023-05-01T06:22:07;101839.53;;;13.68;100.00
46718;BME280;32448;44.960;-0.698;2023-05-01T06:24:41;101842.25;;;13.74;100.00
46718;BME280;32448;44.960;-0.698;2023-05-01T06:27:09;101840.63;;;13.81;100.00
46718;BME280;32448;44.960;-0.698;2023-05-01T06:29:37;101845.94;;;13.82;100.00
46718;BME280;32448;44.960;-0.698;2023-05-01T06:32:04;101846.78;;;13.80;100.00
46718;BME280;32448;44.960;-0.698;2023-05-01T06:34:31;101846.69;;;13.77;100.00
46718;BME280;32448;44.960;-0.698;2023-05-01T06:36:58;101845.03;;;13.82;100.00
46718;BME280;32448;44.960;-0.698;2023-05-01T06:39:27;101838.00;;;13.81;100.00
46718;BME280;32448;44.960;-0.698;2023-05-01T06:42:02;101841.38;;;13.74;100.00
46718;BME280;32448;44.960;-0.698;2023-05-01T06:44:37;101843.25;;;13.81;100.00
46718;BME280;32448;44.960;-0.698;2023-05-01T06:47:04;101842.50;;;13.85;100.00
46718;BME280;32448;44.960;-0.698;2023-05-01T06:49:32;101838.25;;;13.93;100.00
46718;BME280;32448;44.960;-0.698;2023-05-01T06:51:59;101840.22;;;14.03;100.00
46718;BME280;32448;44.960;-0.698;2023-05-01T06:54:26;101843.72;;;14.02;100.00
46718;BME280;32448;44.960;-0.698;2023-05-01T06:56:54;101842.66;;;13.94;100.00
46718;BME280;32448;44.960;-0.698;2023-05-01T06:59:21;101848.09;;;14.03;100.00
46718;BME280;32448;44.960;-0.698;2023-05-01T07:01:48;101843.81;;;14.07;100.00
46718;BME280;32448;44.960;-0.698;2023-05-01T07:04:16;101847.47;;;14.13;100.00
46718;BME280;32448;44.960;-0.698;2023-05-01T07:06:44;101853.59;;;14.15;100.00
46718;BME280;32448;44.960;-0.698;2023-05-01T07:09:12;101841.50;;;14.22;100.00
46718;BME280;32448;44.960;-0.698;2023-05-01T07:11:40;101853.88;;;14.29;100.00
46718;BME280;32448;44.960;-0.698;2023-05-01T07:14:15;101855.41;;;14.18;100.00
46718;BME280;32448;44.960;-0.698;2023-05-01T07:16:52;101853.91;;;14.31;100.00
46718;BME280;32448;44.960;-0.698;2023-05-01T07:19:20;101854.13;;;14.40;100.00
46718;BME280;32448;44.960;-0.698;2023-05-01T07:21:47;101861.28;;;14.47;100.00
46718;BME280;32448;44.960;-0.698;2023-05-01T07:24:14;101855.13;;;14.48;100.00
46718;BME280;32448;44.960;-0.698;2023-05-01T07:26:42;101860.56;;;14.55;100.00
46718;BME280;32448;44.960;-0.698;2023-05-01T07:29:09;101857.06;;;14.58;100.00
46718;BME280;32448;44.960;-0.698;2023-05-01T07:31:41;101857.16;;;14.63;100.00
46718;BME280;32448;44.960;-0.698;2023-05-01T07:34:23;101866.19;;;14.77;100.00
46718;BME280;32448;44.960;-0.698;2023-05-01T07:36:50;101872.03;;;14.61;100.00
46718;BME280;32448;44.960;-0.698;2023-05-01T07:39:17;101878.22;;;14.63;100.00
46718;BME280;32448;44.960;-0.698;2023-05-01T07:41:45;101883.63;;;14.69;100.00
46718;BME280;32448;44.960;-0.698;2023-05-01T07:44:13;101873.09;;;14.70;100.00
46718;BME280;32448;44.960;-0.698;2023-05-01T07:46:43;101875.97;;;14.84;100.00
46718;BME280;32448;44.960;-0.698;2023-05-01T07:49:11;101875.22;;;14.91;100.00
46718;BME280;32448;44.960;-0.698;2023-05-01T07:51:38;101875.88;;;14.78;100.00
46718;BME280;32448;44.960;-0.698;2023-05-01T07:54:08;101878.63;;;14.85;100.00
46718;BME280;32448;44.960;-0.698;2023-05-01T07:56:36;101876.88;;;14.86;100.00
46718;BME280;32448;44.960;-0.698;2023-05-01T07:59:03;101869.00;;;14.87;100.00
46718;BME280;32448;44.960;-0.698;2023-05-01T08:01:30;101870.13;;;15.02;100.00
46718;BME280;32448;44.960;-0.698;2023-05-01T08:04:00;101867.59;;;15.08;100.00
46718;BME280;32448;44.960;-0.698;2023-05-01T08:06:28;101866.97;;;15.25;100.00
46718;BME280;32448;44.960;-0.698;2023-05-01T08:08:55;101861.88;;;15.35;100.00
46718;BME280;32448;44.960;-0.698;2023-05-01T08:11:22;101854.13;;;15.47;100.00
46718;BME280;32448;44.960;-0.698;2023-05-01T08:13:50;101865.59;;;15.50;100.00
46718;BME280;32448;44.960;-0.698;2023-05-01T08:16:18;101850.06;;;15.67;100.00
46718;BME280;32448;44.960;-0.698;2023-05-01T08:18:48;101857.97;;;15.67;100.00
46718;BME280;32448;44.960;-0.698;2023-05-01T08:21:16;101853.50;;;15.63;100.00
46718;BME280;32448;44.960;-0.698;2023-05-01T08:23:44;101853.44;;;15.57;100.00
46718;BME280;32448;44.960;-0.698;2023-05-01T08:26:11;101849.09;;;15.60;100.00
46718;BME280;32448;44.960;-0.698;2023-05-01T08:28:38;101860.59;;;15.65;100.00
46718;BME280;32448;44.960;-0.698;2023-05-01T08:31:05;101865.34;;;15.95;100.00
46718;BME280;32448;44.960;-0.698;2023-05-01T08:33:33;101859.63;;;16.31;100.00
46718;BME280;32448;44.960;-0.698;2023-05-01T08:36:02;101862.28;;;16.33;100.00
46718;BME280;32448;44.960;-0.698;2023-05-01T08:38:29;101862.31;;;16.36;100.00
46718;BME280;32448;44.960;-0.698;2023-05-01T08:40:57;101862.44;;;16.45;100.00
46718;BME280;32448;44.960;-0.698;2023-05-01T08:43:25;101869.41;;;16.42;100.00
46718;BME280;32448;44.960;-0.698;2023-05-01T08:45:54;101876.25;;;16.26;100.00
46718;BME280;32448;44.960;-0.698;2023-05-01T08:48:22;101878.88;;;16.24;100.00
46718;BME280;32448;44.960;-0.698;2023-05-01T08:50:51;101882.00;;;15.90;100.00
46718;BME280;32448;44.960;-0.698;2023-05-01T08:53:28;101895.03;;;15.78;100.00
46718;BME280;32448;44.960;-0.698;2023-05-01T08:55:57;101895.03;;;15.78;100.00
46718;BME280;32448;44.960;-0.698;2023-05-01T08:58:29;101902.59;;;15.55;100.00
46718;BME280;32448;44.960;-0.698;2023-05-01T09:01:00;101906.06;;;15.54;100.00
46718;BME280;32448;44.960;-0.698;2023-05-01T09:03:30;101896.16;;;15.39;100.00
46718;BME280;32448;44.960;-0.698;2023-05-01T09:05:58;101900.44;;;15.31;100.00
46718;BME280;32448;44.960;-0.698;2023-05-01T09:08:26;101903.94;;;15.30;100.00
46718;BME280;32448;44.960;-0.698;2023-05-01T09:10:54;101908.22;;;15.25;100.00
46718;BME280;32448;44.960;-0.698;2023-05-01T09:13:23;101914.31;;;15.19;100.00
46718;BME280;32448;44.960;-0.698;2023-05-01T09:15:51;101916.34;;;15.37;100.00
46718;BME280;32448;44.960;-0.698;2023-05-01T09:18:19;101910.94;;;15.28;100.00
46718;BME280;32448;44.960;-0.698;2023-05-01T09:20:46;101910.84;;;15.22;100.00
46718;BME280;32448;44.960;-0.698;2023-05-01T09:23:13;101912.56;;;15.20;100.00
46718;BME280;32448;44.960;-0.698;2023-05-01T09:25:41;101905.72;;;15.31;100.00
46718;BME280;32448;44.960;-0.698;2023-05-01T09:28:12;101914.47;;;15.30;100.00
46718;BME280;32448;44.960;-0.698;2023-05-01T09:30:40;101919.50;;;15.16;100.00
46718;BME280;32448;44.960;-0.698;2023-05-01T09:33:08;101915.25;;;15.23;100.00
46718;BME280;32448;44.960;-0.698;2023-05-01T09:35:53;101924.66;;;15.09;100.00
46718;BME280;32448;44.960;-0.698;2023-05-01T09:38:22;101921.41;;;15.23;100.00
46718;BME280;32448;44.960;-0.698;2023-05-01T09:40:51;101930.09;;;15.19;100.00
46718;BME280;32448;44.960;-0.698;2023-05-01T09:43:25;101930.06;;;15.18;100.00
46718;BME280;32448;44.960;-0.698;2023-05-01T09:46:07;101935.63;;;15.35;100.00
46718;BME280;32448;44.960;-0.698;2023-05-01T09:48:39;101938.97;;;15.23;100.00
46718;BME280;32448;44.960;-0.698;2023-05-01T09:51:23;101938.06;;;15.22;100.00
46718;BME280;32448;44.960;-0.698;2023-05-01T09:53:52;101928.41;;;15.23;100.00
46718;BME280;32448;44.960;-0.698;2023-05-01T09:56:21;101938.16;;;15.28;100.00
46718;BME280;32448;44.960;-0.698;2023-05-01T09:58:51;101934.69;;;15.31;100.00
46718;BME280;32448;44.960;-0.698;2023-05-01T10:01:37;101941.03;;;15.44;100.00
46718;BME280;32448;44.960;-0.698;2023-05-01T10:04:06;101942.13;;;15.55;100.00
46718;BME280;32448;44.960;-0.698;2023-05-01T10:06:36;101946.72;;;15.68;100.00
46718;BME280;32448;44.960;-0.698;2023-05-01T10:09:11;101943.50;;;15.89;100.00
46718;BME280;32448;44.960;-0.698;2023-05-01T10:11:53;101938.44;;;16.06;100.00
46718;BME280;32448;44.960;-0.698;2023-05-01T10:14:24;101933.69;;;15.80;100.00
46718;BME280;32448;44.960;-0.698;2023-05-01T10:16:52;101932.16;;;15.94;100.00
46718;BME280;32448;44.960;-0.698;2023-05-01T10:19:25;101936.50;;;15.92;100.00
46718;BME280;32448;44.960;-0.698;2023-05-01T10:21:53;101941.56;;;15.76;100.00
46718;BME280;32448;44.960;-0.698;2023-05-01T10:24:20;101943.34;;;15.77;100.00
46718;BME280;32448;44.960;-0.698;2023-05-01T10:26:48;101943.31;;;15.75;100.00
46718;BME280;32448;44.960;-0.698;2023-05-01T10:29:17;101939.69;;;15.67;100.00
46718;BME280;32448;44.960;-0.698;2023-05-01T10:31:46;101947.56;;;15.65;100.00
46718;BME280;32448;44.960;-0.698;2023-05-01T10:34:15;101945.53;;;15.51;100.00
46718;BME280;32448;44.960;-0.698;2023-05-01T10:36:46;101946.81;;;15.74;100.00
46718;BME280;32448;44.960;-0.698;2023-05-01T10:39:52;101946.00;;;15.78;100.00
46718;BME280;32448;44.960;-0.698;2023-05-01T10:42:11;101941.03;;;16.01;100.00
46718;BME280;32448;44.960;-0.698;2023-05-01T10:44:42;101942.88;;;16.07;100.00
46718;BME280;32448;44.960;-0.698;2023-05-01T10:55:39;101956.88;;;16.01;100.00
46718;BME280;32448;44.960;-0.698;2023-05-01T10:58:11;101957.97;;;16.18;100.00
46718;BME280;32448;44.960;-0.698;2023-05-01T11:00:38;101961.47;;;16.17;100.00
46718;BME280;32448;44.960;-0.698;2023-05-01T11:06:12;101951.78;;;16.16;100.00
46718;BME280;32448;44.960;-0.698;2023-05-01T11:08:44;101954.38;;;16.12;100.00
46718;BME280;32448;44.960;-0.698;2023-05-01T11:14:03;101951.00;;;16.25;100.00
46718;BME280;32448;44.960;-0.698;2023-05-01T11:19:01;101939.72;;;16.38;100.00
46718;BME280;32448;44.960;-0.698;2023-05-01T11:21:29;101942.75;;;16.65;100.00
46718;BME280;32448;44.960;-0.698;2023-05-01T11:23:57;101927.88;;;16.75;100.00
46718;BME280;32448;44.960;-0.698;2023-05-01T11:26:25;101930.50;;;16.73;100.00
46718;BME280;32448;44.960;-0.698;2023-05-01T11:28:58;101930.72;;;16.96;100.00
46718;BME280;32448;44.960;-0.698;2023-05-01T11:31:26;101924.44;;;16.84;100.00
46718;BME280;32448;44.960;-0.698;2023-05-01T11:33:55;101925.44;;;16.96;100.00
46718;BME280;32448;44.960;-0.698;2023-05-01T11:36:23;101920.94;;;16.86;100.00
46718;BME280;32448;44.960;-0.698;2023-05-01T11:41:22;101917.72;;;17.21;100.00
46718;BME280;32448;44.960;-0.698;2023-05-01T11:43:50;101917.81;;;17.36;100.00
46718;BME280;32448;44.960;-0.698;2023-05-01T11:46:24;101918.69;;;17.30;100.00
46718;BME280;32448;44.960;-0.698;2023-05-01T11:48:56;101913.41;;;17.30;100.00
46718;BME280;32448;44.960;-0.698;2023-05-01T11:51:24;101910.84;;;17.47;100.00
46718;BME280;32448;44.960;-0.698;2023-05-01T11:54:02;101908.38;;;17.68;100.00
46718;BME280;32448;44.960;-0.698;2023-05-01T11:56:30;101910.16;;;17.66;100.00
46718;BME280;32448;44.960;-0.698;2023-05-01T11:58:59;101922.47;;;17.63;100.00
46718;BME280;32448;44.960;-0.698;2023-05-01T12:01:34;101919.69;;;17.51;100.00
46718;BME280;32448;44.960;-0.698;2023-05-01T12:04:02;101923.19;;;17.48;100.00
46718;BME280;32448;44.960;-0.698;2023-05-01T12:06:43;101913.50;;;17.42;100.00
46718;BME280;32448;44.960;-0.698;2023-05-01T12:09:21;101904.78;;;17.60;100.00
46718;BME280;32448;44.960;-0.698;2023-05-01T12:11:51;101905.88;;;17.87;100.00
46718;BME280;32448;44.960;-0.698;2023-05-01T12:15:07;101895.28;;;17.90;100.00
46718;BME280;32448;44.960;-0.698;2023-05-01T12:18:19;101884.78;;;18.05;100.00
46718;BME280;32448;44.960;-0.698;2023-05-01T12:20:51;101886.59;;;18.23;100.00
46718;BME280;32448;44.960;-0.698;2023-05-01T12:34:54;101868.13;;;18.41;100.00
46718;BME280;32448;44.960;-0.698;2023-05-01T12:37:35;101869.00;;;18.40;100.00
46718;BME280;32448;44.960;-0.698;2023-05-01T12:40:04;101872.50;;;18.34;100.00
46718;BME280;32448;44.960;-0.698;2023-05-01T12:42:52;101861.97;;;18.51;100.00
46718;BME280;32448;44.960;-0.698;2023-05-01T12:45:38;101875.28;;;18.66;100.00
46718;BME280;32448;44.960;-0.698;2023-05-01T12:48:19;101869.09;;;18.76;100.00
46718;BME280;32448;44.960;-0.698;2023-05-01T12:50:48;101870.84;;;18.68;100.00
46718;BME280;32448;44.960;-0.698;2023-05-01T12:53:24;101869.97;;;18.90;100.00
46718;BME280;32448;44.960;-0.698;2023-05-01T12:55:59;101873.50;;;19.18;100.00
46718;BME280;32448;44.960;-0.698;2023-05-01T12:58:37;101862.00;;;19.24;100.00
46718;BME280;32448;44.960;-0.698;2023-05-01T13:01:05;101868.19;;;19.34;100.00
46718;BME280;32448;44.960;-0.698;2023-05-01T13:03:42;101865.56;;;19.09;100.00
46718;BME280;32448;44.960;-0.698;2023-05-01T13:06:09;101860.25;;;19.18;100.00
46718;BME280;32448;44.960;-0.698;2023-05-01T13:08:37;101858.47;;;19.40;100.00
46718;BME280;32448;44.960;-0.698;2023-05-01T13:11:09;101855.75;;;19.72;100.00
46718;BME280;32448;44.960;-0.698;2023-05-01T13:13:47;101860.88;;;20.15;100.00
46718;BME280;32448;44.960;-0.698;2023-05-01T13:16:15;101855.41;;;20.45;100.00
46718;BME280;32448;44.960;-0.698;2023-05-01T13:18:45;101854.59;;;20.31;100.00
46718;BME280;32448;44.960;-0.698;2023-05-01T13:21:18;101861.38;;;20.81;100.00
46718;BME280;32448;44.960;-0.698;2023-05-01T13:23:52;101856.19;;;20.64;100.00
46718;BME280;32448;44.960;-0.698;2023-05-01T13:26:30;101855.19;;;20.77;100.00
46718;BME280;32448;44.960;-0.698;2023-05-01T13:29:00;101854.44;;;20.58;100.00
46718;BME280;32448;44.960;-0.698;2023-05-01T13:31:28;101849.31;;;20.25;100.00
46718;BME280;32448;44.960;-0.698;2023-05-01T13:33:57;101845.00;;;20.06;100.00
46718;BME280;32448;44.960;-0.698;2023-05-01T13:36:29;101838.69;;;20.22;100.00
46718;BME280;32448;44.960;-0.698;2023-05-01T13:39:03;101838.53;;;20.55;100.00